createdAt,value
2022-07-27T00:00:57.092Z,52.22
2022-07-27T00:03:24.113Z,52.08
2022-07-27T00:05:50.862Z,51.46
2022-07-27T00:08:20.627Z,51.17
2022-07-27T00:10:48.063Z,50.74
2022-07-27T00:13:14.877Z,50.31
2022-07-27T00:15:44.570Z,51.07
2022-07-27T00:18:11.679Z,51.29
2022-07-27T00:20:40.058Z,50.62
2022-07-27T00:23:07.101Z,51.13
2022-07-27T00:25:35.267Z,51.39
2022-07-27T00:28:02.156Z,51.61
2022-07-27T00:30:29.383Z,52.07
2022-07-27T00:32:57.099Z,51.13
2022-07-27T00:35:23.827Z,51.58
2022-07-27T00:37:50.675Z,51.92
2022-07-27T00:40:17.725Z,51.54
2022-07-27T00:42:45.032Z,52.46
2022-07-27T00:45:11.875Z,51.98
2022-07-27T00:47:38.956Z,51.80
2022-07-27T00:50:05.993Z,52.13
2022-07-27T00:52:33.333Z,52.18
2022-07-27T00:55:00.479Z,51.63
2022-07-27T00:57:27.786Z,51.00
2022-07-27T00:59:54.757Z,51.49
2022-07-27T01:02:22.859Z,50.32
2022-07-27T01:04:53.807Z,50.20
2022-07-27T01:07:24.726Z,50.67
2022-07-27T01:09:57.751Z,49.52
2022-07-27T01:12:29.552Z,48.76
2022-07-27T01:14:57.941Z,48.72
2022-07-27T01:17:25.617Z,49.77
2022-07-27T01:19:52.378Z,49.13
2022-07-27T01:22:19.305Z,48.49
2022-07-27T01:24:46.489Z,48.54
2022-07-27T01:27:13.221Z,48.47
2022-07-27T01:29:40.715Z,48.72
2022-07-27T01:32:08.022Z,48.13
2022-07-27T01:34:35.222Z,47.64
2022-07-27T01:37:02.302Z,48.14
2022-07-27T01:39:29.495Z,48.54
2022-07-27T01:41:56.313Z,48.75
2022-07-27T01:44:23.582Z,49.31
2022-07-27T01:46:50.892Z,49.80
2022-07-27T01:49:17.826Z,50.52
2022-07-27T01:51:44.885Z,50.62
2022-07-27T01:54:12.141Z,50.69
2022-07-27T01:56:39.032Z,51.22
2022-07-27T01:59:06.120Z,51.08
2022-07-27T02:01:33.221Z,50.97
2022-07-27T02:04:00.311Z,51.76
2022-07-27T02:06:27.388Z,51.33
2022-07-27T02:08:54.240Z,51.51
2022-07-27T02:11:39.873Z,51.04
2022-07-27T02:14:06.648Z,51.92
2022-07-27T02:16:33.877Z,51.31
2022-07-27T02:19:00.766Z,51.58
2022-07-27T02:21:32.714Z,51.36
2022-07-27T02:23:59.782Z,51.56
2022-07-27T02:26:27.747Z,51.85
2022-07-27T02:28:54.562Z,51.22
2022-07-27T02:31:21.628Z,51.65
2022-07-27T02:33:48.403Z,50.58
2022-07-27T02:36:15.169Z,50.82
2022-07-27T02:38:42.205Z,51.09
2022-07-27T02:41:09.249Z,50.62
2022-07-27T02:43:35.970Z,50.45
2022-07-27T02:46:03.063Z,51.03
2022-07-27T02:48:30.163Z,51.08
2022-07-27T02:50:59.869Z,50.77
2022-07-27T02:53:26.863Z,51.71
2022-07-27T02:55:53.640Z,51.79
2022-07-27T02:58:21.229Z,51.59
2022-07-27T03:00:48.506Z,51.70
2022-07-27T03:03:15.311Z,51.00
2022-07-27T03:05:42.202Z,51.44
2022-07-27T03:08:09.689Z,51.36
2022-07-27T03:10:36.779Z,51.64
2022-07-27T03:13:03.757Z,51.35
2022-07-27T03:15:32.296Z,51.38
2022-07-27T03:17:59.328Z,52.61
2022-07-27T03:20:26.187Z,51.18
2022-07-27T03:22:54.262Z,51.38
2022-07-27T03:25:21.005Z,51.18
2022-07-27T03:27:47.710Z,50.74
2022-07-27T03:30:14.820Z,51.04
2022-07-27T03:32:42.038Z,51.14
2022-07-27T03:35:09.072Z,51.25
2022-07-27T03:37:36.048Z,51.62
2022-07-27T03:40:02.979Z,51.25
2022-07-27T03:42:29.962Z,51.93
2022-07-27T03:44:57.464Z,51.33
2022-07-27T03:47:25.067Z,51.29
2022-07-27T03:49:52.873Z,52.14
2022-07-27T03:52:20.183Z,51.42
2022-07-27T03:54:48.647Z,52.04
2022-07-27T03:57:15.516Z,52.13
2022-07-27T03:59:42.484Z,51.95
2022-07-27T04:02:09.312Z,51.58
2022-07-27T04:04:36.483Z,52.13
2022-07-27T04:07:03.305Z,52.41
2022-07-27T04:09:30.040Z,52.71
2022-07-27T04:11:58.435Z,52.68
2022-07-27T04:14:26.406Z,52.56
2022-07-27T04:16:53.273Z,53.21
2022-07-27T04:19:20.395Z,53.31
2022-07-27T04:21:47.169Z,53.31
2022-07-27T04:24:14.102Z,53.17
2022-07-27T04:26:56.099Z,52.88
2022-07-27T04:29:32.423Z,52.18
2022-07-27T04:32:01.276Z,52.86
2022-07-27T04:34:28.107Z,53.01
2022-07-27T04:36:54.866Z,53.00
2022-07-27T04:39:21.953Z,52.23
2022-07-27T04:41:48.681Z,50.81
2022-07-27T04:44:15.440Z,51.23
2022-07-27T04:46:42.718Z,51.07
2022-07-27T04:49:09.810Z,50.85
2022-07-27T04:51:36.775Z,50.86
2022-07-27T05:21:30.283Z,50.05
2022-07-27T05:23:57.380Z,49.41
2022-07-27T05:26:24.153Z,48.94
2022-07-27T05:28:51.070Z,49.22
2022-07-27T05:31:18.763Z,48.48
2022-07-27T05:33:49.144Z,49.06
2022-07-27T05:36:17.322Z,49.77
2022-07-27T05:38:44.300Z,50.60
2022-07-27T05:41:11.067Z,51.00
2022-07-27T05:43:37.780Z,49.78
2022-07-27T05:46:04.801Z,49.30
2022-07-27T05:48:31.663Z,49.10
2022-07-27T05:50:58.459Z,48.04
2022-07-27T05:53:25.617Z,47.90
2022-07-27T05:55:58.658Z,47.46
2022-07-27T05:58:29.667Z,47.03
2022-07-27T06:00:56.795Z,46.93
2022-07-27T06:03:24.008Z,47.30
2022-07-27T06:05:50.837Z,46.95
2022-07-27T06:08:17.563Z,47.34
2022-07-27T06:10:44.587Z,46.65
2022-07-27T06:13:14.310Z,45.86
2022-07-27T06:15:41.108Z,45.79
2022-07-27T06:18:14.991Z,46.18
2022-07-27T06:20:43.193Z,45.19
2022-07-27T06:23:11.057Z,44.69
2022-07-27T06:25:37.855Z,44.67
2022-07-27T06:28:05.134Z,44.46
2022-07-27T06:30:32.362Z,44.64
2022-07-27T06:32:59.677Z,44.29
2022-07-27T06:35:26.587Z,42.67
2022-07-27T06:37:54.136Z,39.85
2022-07-27T06:40:20.918Z,38.58
2022-07-27T06:42:47.687Z,38.60
2022-07-27T06:45:14.887Z,39.25
2022-07-27T06:47:48.799Z,37.11
2022-07-27T06:50:17.751Z,36.01
2022-07-27T06:52:44.602Z,35.23
2022-07-27T06:55:11.371Z,36.09
2022-07-27T06:57:38.405Z,34.81
2022-07-27T07:00:05.756Z,36.83
2022-07-27T07:02:32.653Z,34.27
2022-07-27T07:04:59.667Z,32.98
2022-07-27T07:07:26.418Z,30.31
2022-07-27T07:09:53.180Z,33.79
2022-07-27T07:12:20.291Z,30.12
2022-07-27T07:14:47.020Z,34.53
2022-07-27T07:17:13.992Z,30.12
2022-07-27T07:19:41.522Z,29.90
2022-07-27T07:22:08.539Z,30.87
2022-07-27T07:24:35.483Z,28.79
2022-07-27T07:27:02.454Z,29.42
2022-07-27T07:29:29.217Z,29.63
2022-07-27T07:31:56.065Z,32.17
2022-07-27T07:34:23.185Z,28.21
2022-07-27T07:36:49.945Z,27.81
2022-07-27T07:39:17.349Z,27.07
2022-07-27T07:41:44.425Z,28.68
2022-07-27T07:44:11.218Z,26.24
2022-07-27T07:46:38.198Z,26.41
2022-07-27T07:49:05.526Z,25.41
2022-07-27T07:51:32.379Z,25.54
2022-07-27T07:53:59.390Z,25.16
2022-07-27T07:56:26.396Z,23.79
2022-07-27T07:58:53.391Z,24.15
2022-07-27T08:01:20.202Z,22.74
2022-07-27T08:03:53.551Z,22.68
2022-07-27T08:06:20.355Z,22.56
2022-07-27T08:08:47.149Z,23.48
2022-07-27T08:11:14.136Z,24.20
2022-07-27T08:13:40.873Z,22.19
2022-07-27T08:16:07.664Z,22.03
2022-07-27T08:18:34.789Z,22.22
2022-07-27T08:21:01.518Z,23.82
2022-07-27T08:23:28.368Z,23.02
2022-07-27T08:25:55.607Z,24.88
2022-07-27T08:28:22.711Z,22.01
2022-07-27T08:30:49.649Z,22.34
2022-07-27T08:33:17.071Z,24.66
2022-07-27T08:35:44.362Z,22.78
2022-07-27T08:38:11.310Z,21.60
2022-07-27T08:40:44.055Z,23.08
2022-07-27T08:43:12.106Z,23.50
2022-07-27T08:45:41.695Z,22.89
2022-07-27T08:48:12.124Z,20.10
2022-07-27T08:50:38.978Z,21.80
2022-07-27T08:53:07.072Z,20.93
2022-07-27T08:55:41.051Z,20.21
2022-07-27T08:58:08.736Z,20.84
2022-07-27T09:00:36.039Z,21.49
2022-07-27T09:03:03.399Z,20.82
2022-07-27T09:05:37.548Z,19.79
2022-07-27T09:08:15.009Z,20.58
2022-07-27T09:10:42.147Z,20.00
2022-07-27T09:13:18.179Z,19.68
2022-07-27T09:16:15.796Z,20.23
2022-07-27T09:18:37.638Z,20.59
2022-07-27T09:21:07.567Z,20.94
2022-07-27T09:23:34.406Z,20.91
2022-07-27T09:26:31.276Z,20.62
2022-07-27T09:29:00.609Z,20.58
2022-07-27T09:31:27.419Z,20.35
2022-07-27T09:33:55.063Z,21.39
2022-07-27T09:36:22.886Z,21.33
2022-07-27T09:39:02.103Z,21.06
2022-07-27T09:41:46.294Z,20.95
2022-07-27T09:44:32.167Z,19.96
2022-07-27T09:47:00.098Z,20.31
2022-07-27T09:49:27.702Z,19.07
2022-07-27T09:52:00.637Z,19.19
2022-07-27T09:54:41.554Z,19.65
2022-07-27T09:57:09.192Z,18.67
2022-07-27T09:59:36.202Z,18.89
2022-07-27T10:02:03.137Z,18.90
2022-07-27T10:04:30.202Z,18.47
2022-07-27T10:07:07.265Z,17.64
2022-07-27T10:09:37.920Z,19.09
2022-07-27T10:12:04.961Z,20.56
2022-07-27T10:14:32.275Z,18.61
2022-07-27T10:16:59.346Z,19.84
2022-07-27T10:19:28.416Z,18.40
2022-07-27T10:21:56.114Z,18.38
2022-07-27T10:24:26.999Z,18.54
2022-07-27T10:26:53.964Z,19.44
2022-07-27T10:29:21.095Z,18.33
2022-07-27T10:31:54.009Z,17.84
2022-07-27T10:34:39.780Z,17.61
2022-07-27T10:37:11.006Z,18.71
2022-07-27T10:39:43.158Z,17.58
2022-07-27T10:42:20.636Z,18.48
2022-07-27T10:44:53.665Z,18.80
2022-07-27T10:47:39.345Z,18.65
2022-07-27T10:50:12.190Z,18.20
2022-07-27T10:52:43.341Z,19.77
2022-07-27T10:55:28.336Z,18.78
2022-07-27T10:57:57.235Z,19.11
2022-07-27T11:00:42.758Z,17.68
2022-07-27T11:03:10.076Z,19.23
2022-07-27T11:05:59.584Z,19.31
2022-07-27T11:08:38.350Z,17.85
2022-07-27T11:11:15.759Z,18.54
2022-07-27T11:13:42.857Z,17.83
2022-07-27T11:16:26.140Z,18.91
2022-07-27T11:18:54.693Z,17.91
2022-07-27T11:21:26.242Z,17.51
2022-07-27T11:23:54.788Z,17.90
2022-07-27T11:26:22.416Z,18.38
2022-07-27T11:28:49.368Z,18.83
2022-07-27T11:31:27.604Z,18.26
2022-07-27T11:34:04.628Z,19.05
2022-07-27T11:36:38.847Z,18.28
2022-07-27T11:39:06.618Z,18.95
2022-07-27T11:42:05.836Z,17.49
2022-07-27T11:44:21.419Z,17.80
2022-07-27T11:46:48.899Z,18.17
2022-07-27T11:49:17.222Z,18.72
2022-07-27T11:51:45.432Z,17.75
2022-07-27T11:54:12.630Z,18.92
2022-07-27T11:56:43.302Z,17.85
2022-07-27T11:59:17.562Z,18.22
2022-07-27T12:01:46.632Z,18.22
2022-07-27T12:04:33.085Z,17.81
2022-07-27T12:07:06.009Z,17.61
2022-07-27T12:09:38.737Z,18.25
2022-07-27T12:12:15.074Z,17.88
2022-07-27T12:14:43.507Z,18.22
2022-07-27T12:17:11.220Z,16.74
2022-07-27T12:19:38.101Z,17.34
2022-07-27T12:22:05.203Z,17.34
2022-07-27T12:24:36.226Z,17.18
2022-07-27T12:27:06.571Z,17.55
2022-07-27T12:29:34.507Z,16.88
2022-07-27T12:32:02.829Z,17.02
2022-07-27T12:34:33.631Z,18.69
2022-07-27T12:37:00.671Z,16.78
2022-07-27T12:39:28.525Z,17.13
2022-07-27T12:42:05.728Z,17.20
2022-07-27T12:44:34.344Z,17.81
2022-07-27T12:47:27.784Z,20.05
2022-07-27T12:50:01.821Z,18.20
2022-07-27T12:52:28.751Z,18.02
2022-07-27T12:54:55.822Z,17.86
2022-07-27T12:57:53.564Z,17.32
2022-07-27T13:00:11.351Z,18.37
2022-07-27T13:02:38.301Z,18.67
2022-07-27T13:05:06.055Z,17.43
2022-07-27T13:07:33.233Z,18.55
2022-07-27T13:10:02.645Z,16.79
2022-07-27T13:12:30.526Z,17.18
2022-07-27T13:14:57.771Z,19.94
2022-07-27T13:17:24.730Z,17.66
2022-07-27T13:19:51.557Z,19.12
2022-07-27T13:22:18.782Z,20.68
2022-07-27T13:24:45.804Z,20.11
2022-07-27T13:27:13.514Z,20.81
2022-07-27T13:29:40.594Z,18.67
2022-07-27T13:32:07.930Z,21.29
2022-07-27T13:34:34.880Z,20.50
2022-07-27T13:37:02.440Z,18.87
2022-07-27T13:39:29.897Z,17.74
2022-07-27T13:42:01.151Z,19.65
2022-07-27T13:44:59.460Z,19.21
2022-07-27T13:47:15.022Z,18.17
2022-07-27T13:49:42.077Z,19.82
2022-07-27T13:52:09.543Z,17.34
2022-07-27T13:54:36.270Z,18.03
2022-07-27T13:57:03.402Z,18.30
2022-07-27T13:59:30.309Z,18.02
2022-07-27T14:01:57.136Z,17.34
2022-07-27T14:04:24.573Z,17.68
2022-07-27T14:06:52.540Z,17.04
2022-07-27T14:09:22.048Z,17.52
2022-07-27T14:11:52.777Z,17.52
2022-07-27T14:14:24.347Z,16.80
2022-07-27T14:16:54.122Z,16.87
2022-07-27T14:19:21.938Z,16.52
2022-07-27T14:21:48.704Z,17.52
2022-07-27T14:24:15.753Z,17.18
2022-07-27T14:26:44.779Z,18.68
2022-07-27T14:29:11.724Z,19.30
2022-07-27T14:31:39.362Z,18.32
2022-07-27T14:34:06.236Z,17.79
2022-07-27T14:36:33.909Z,17.83
2022-07-27T14:39:00.973Z,17.22
2022-07-27T14:41:28.783Z,18.32
2022-07-27T14:43:55.659Z,19.04
2022-07-27T14:46:22.766Z,18.29
2022-07-27T14:49:09.911Z,18.42
2022-07-27T14:51:36.951Z,18.13
2022-07-27T14:54:04.213Z,18.58
2022-07-27T14:56:31.018Z,17.24
2022-07-27T14:58:58.292Z,17.96
2022-07-27T15:01:25.151Z,18.02
2022-07-27T15:03:51.977Z,17.66
2022-07-27T15:06:19.059Z,18.46
2022-07-27T15:08:46.057Z,17.63
2022-07-27T15:11:12.873Z,18.39
2022-07-27T15:13:40.092Z,18.21
2022-07-27T15:16:06.948Z,17.79
2022-07-27T15:18:38.148Z,17.64
2022-07-27T15:21:13.032Z,18.15
2022-07-27T15:23:44.205Z,18.29
2022-07-27T15:26:15.088Z,17.60
2022-07-27T15:28:42.036Z,17.28
2022-07-27T15:31:08.959Z,18.48
2022-07-27T15:33:36.047Z,19.02
2022-07-27T15:36:02.787Z,19.68
2022-07-27T15:38:29.523Z,18.91
2022-07-27T15:40:56.569Z,19.98
2022-07-27T15:43:23.565Z,19.44
2022-07-27T15:45:50.850Z,21.17
2022-07-27T15:48:19.389Z,20.93
2022-07-27T15:50:50.201Z,18.87
2022-07-27T15:53:18.541Z,20.11
2022-07-27T15:55:45.352Z,21.72
2022-07-27T15:58:13.554Z,21.16
2022-07-27T16:00:41.727Z,19.92
2022-07-27T16:03:12.121Z,21.01
2022-07-27T16:05:39.473Z,19.95
2022-07-27T16:08:07.598Z,21.12
2022-07-27T16:10:34.631Z,20.30
2022-07-27T16:13:01.451Z,19.21
2022-07-27T16:15:46.926Z,19.45
2022-07-27T16:18:14.025Z,19.40
2022-07-27T16:20:40.832Z,20.38
2022-07-27T16:23:18.683Z,20.73
2022-07-27T16:26:07.583Z,19.92
2022-07-27T16:28:39.107Z,20.21
2022-07-27T16:31:07.221Z,20.55
2022-07-27T16:33:34.055Z,20.86
2022-07-27T16:36:00.847Z,20.21
2022-07-27T16:38:28.194Z,20.51
2022-07-27T16:40:54.998Z,20.84
2022-07-27T16:43:21.732Z,19.89
2022-07-27T16:45:48.767Z,20.23
2022-07-27T16:48:16.724Z,20.02
2022-07-27T16:50:43.452Z,20.63
2022-07-27T16:53:10.704Z,21.61
2022-07-27T16:55:37.456Z,20.75
2022-07-27T16:58:05.218Z,20.68
2022-07-27T17:00:38.150Z,20.83
2022-07-27T17:03:06.370Z,21.01
2022-07-27T17:05:33.441Z,20.99
2022-07-27T17:08:00.167Z,20.72
2022-07-27T17:10:27.628Z,21.63
2022-07-27T17:12:55.826Z,21.91
2022-07-27T17:15:24.644Z,21.77
2022-07-27T17:17:51.393Z,23.20
2022-07-27T17:20:32.993Z,24.81
2022-07-27T17:23:03.490Z,24.48
2022-07-27T17:25:30.587Z,24.92
2022-07-27T17:27:57.579Z,24.82
2022-07-27T17:30:24.910Z,25.41
2022-07-27T17:32:53.354Z,25.52
2022-07-27T17:35:20.179Z,25.11
2022-07-27T17:38:05.059Z,25.87
2022-07-27T17:40:32.931Z,25.46
2022-07-27T17:42:59.631Z,25.57
2022-07-27T17:45:26.589Z,26.81
2022-07-27T17:47:53.779Z,25.84
2022-07-27T17:50:20.620Z,25.86
2022-07-27T17:52:47.340Z,26.12
2022-07-27T17:55:14.337Z,27.13
2022-07-27T17:57:41.175Z,26.63
2022-07-27T18:00:10.788Z,26.86
2022-07-27T18:02:37.785Z,27.12
2022-07-27T18:05:04.684Z,27.40
2022-07-27T18:07:39.057Z,28.32
2022-07-27T18:10:07.799Z,27.26
2022-07-27T18:12:35.564Z,27.31
2022-07-27T18:15:21.562Z,28.14
2022-07-27T18:17:48.722Z,27.95
2022-07-27T18:20:15.942Z,27.73
2022-07-27T18:22:42.693Z,27.81
2022-07-27T18:25:10.026Z,27.82
2022-07-27T18:27:38.497Z,28.11
2022-07-27T18:30:05.660Z,28.11
2022-07-27T18:32:33.420Z,28.13
2022-07-27T18:35:01.529Z,27.87
2022-07-27T18:37:28.428Z,27.63
2022-07-27T18:39:55.574Z,27.50
2022-07-27T18:42:22.434Z,28.05
2022-07-27T18:44:49.755Z,27.96
2022-07-27T18:47:16.803Z,27.94
2022-07-27T18:49:43.814Z,27.62
2022-07-27T18:52:11.571Z,28.54
2022-07-27T18:54:39.799Z,28.93
2022-07-27T18:57:06.534Z,30.36
2022-07-27T18:59:35.576Z,30.21
2022-07-27T19:02:08.616Z,30.08
2022-07-27T19:04:35.580Z,31.15
2022-07-27T19:07:03.503Z,31.14
2022-07-27T19:09:33.692Z,31.57
2022-07-27T19:12:03.484Z,31.75
2022-07-27T19:14:33.125Z,31.58
2022-07-27T19:17:00.181Z,31.98
2022-07-27T19:19:27.401Z,31.77
2022-07-27T19:21:54.815Z,31.63
2022-07-27T19:24:23.207Z,32.83
2022-07-27T19:26:50.301Z,32.24
2022-07-27T19:29:19.774Z,33.17
2022-07-27T19:31:47.680Z,32.97
2022-07-27T19:34:14.579Z,34.62
2022-07-27T19:36:41.675Z,34.02
2022-07-27T19:39:08.735Z,34.10
2022-07-27T19:41:35.759Z,35.08
2022-07-27T19:44:03.781Z,35.46
2022-07-27T19:46:30.733Z,35.26
2022-07-27T19:48:57.861Z,36.10
2022-07-27T19:51:25.458Z,36.12
2022-07-27T19:53:53.338Z,36.95
2022-07-27T19:56:20.403Z,37.50
2022-07-27T19:58:47.831Z,36.88
2022-07-27T20:01:14.846Z,36.97
2022-07-27T20:03:52.172Z,37.04
2022-07-27T20:06:21.431Z,37.78
2022-07-27T20:08:48.739Z,36.58
2022-07-27T20:11:15.720Z,36.73
2022-07-27T20:13:42.488Z,37.48
2022-07-27T20:16:09.667Z,37.63
2022-07-27T20:18:37.784Z,37.81
2022-07-27T20:21:04.846Z,37.73
2022-07-27T20:23:50.434Z,38.53
2022-07-27T20:26:17.227Z,39.19
2022-07-27T20:28:44.042Z,38.62
2022-07-27T20:31:12.185Z,38.23
2022-07-27T20:33:40.166Z,38.44
2022-07-27T20:36:07.051Z,38.17
2022-07-27T20:38:34.094Z,37.52
2022-07-27T20:41:01.237Z,37.64
2022-07-27T20:43:28.088Z,37.82
2022-07-27T20:45:55.285Z,38.43
2022-07-27T20:48:22.162Z,36.62
2022-07-27T20:50:48.983Z,37.37
2022-07-27T20:53:20.219Z,36.87
2022-07-27T20:55:47.365Z,36.87
2022-07-27T20:58:14.176Z,35.21
2022-07-27T21:00:41.253Z,35.28
2022-07-27T21:03:08.607Z,35.12
2022-07-27T21:05:35.347Z,35.46
2022-07-27T21:08:02.408Z,34.70
2022-07-27T21:10:29.127Z,34.79
2022-07-27T21:12:57.820Z,34.91
2022-07-27T21:15:33.631Z,34.50
2022-07-27T21:18:01.822Z,34.91
2022-07-27T21:20:29.116Z,34.94
2022-07-27T21:23:14.800Z,35.22
2022-07-27T21:25:43.965Z,36.00
2022-07-27T21:28:11.678Z,36.52
2022-07-27T21:30:44.073Z,36.30
2022-07-27T21:33:10.943Z,36.58
2022-07-27T21:35:37.787Z,36.67
2022-07-27T21:38:04.787Z,37.24
2022-07-27T21:40:32.018Z,37.76
2022-07-27T21:42:58.756Z,37.68
2022-07-27T21:45:25.897Z,37.49
2022-07-27T21:47:52.848Z,37.72
2022-07-27T21:50:19.682Z,37.33
2022-07-27T21:52:46.715Z,37.83
2022-07-27T21:55:13.464Z,38.21
2022-07-27T21:57:45.223Z,38.01
2022-07-27T22:00:13.582Z,37.71
2022-07-27T22:02:40.684Z,37.25
2022-07-27T22:05:07.650Z,38.12
2022-07-27T22:07:34.378Z,37.74
2022-07-27T22:10:01.459Z,37.13
2022-07-27T22:12:28.147Z,37.37
2022-07-27T22:14:54.905Z,38.40
2022-07-27T22:17:21.956Z,37.14
2022-07-27T22:19:48.703Z,37.47
2022-07-27T22:22:15.517Z,37.26
2022-07-27T22:24:42.696Z,36.82
2022-07-27T22:27:10.582Z,37.20
2022-07-27T22:29:38.283Z,36.94
2022-07-27T22:32:09.130Z,37.04
2022-07-27T22:34:35.926Z,36.95
2022-07-27T22:37:03.710Z,38.17
2022-07-27T22:39:31.775Z,36.97
2022-07-27T22:41:58.497Z,36.73
2022-07-27T22:44:25.564Z,36.99
2022-07-27T22:46:52.600Z,37.38
2022-07-27T22:49:19.729Z,38.45
2022-07-27T22:51:49.609Z,38.49
2022-07-27T22:54:18.051Z,38.92
2022-07-27T22:56:44.916Z,38.98
2022-07-27T22:59:11.808Z,39.08
2022-07-27T23:01:45.397Z,40.01
2022-07-27T23:04:14.539Z,39.79
2022-07-27T23:06:42.655Z,38.33
2022-07-27T23:09:09.437Z,38.21
2022-07-27T23:11:36.199Z,38.38
2022-07-27T23:14:03.243Z,38.30
2022-07-27T23:16:30.164Z,38.06
2022-07-27T23:18:56.922Z,37.88
2022-07-27T23:21:23.988Z,37.97
2022-07-27T23:23:53.513Z,37.60
2022-07-27T23:26:20.836Z,37.61
2022-07-27T23:28:53.698Z,37.26
2022-07-27T23:31:20.788Z,36.18
2022-07-27T23:33:47.632Z,37.08
2022-07-27T23:36:14.913Z,37.17
2022-07-27T23:38:41.681Z,35.76
2022-07-27T23:41:08.513Z,36.46
2022-07-27T23:43:35.745Z,36.56
2022-07-27T23:46:03.120Z,35.58
2022-07-27T23:48:30.323Z,35.83
2022-07-27T23:50:57.327Z,36.08
2022-07-27T23:53:24.114Z,36.95
2022-07-27T23:55:50.886Z,36.45
2022-07-27T23:58:17.917Z,37.62
